createdAt,value
2022-12-01T00:00:16.285Z,101960.34
2022-12-01T00:05:18.326Z,101994.72
2022-12-01T00:10:26.555Z,101995.59
2022-12-01T00:15:31.650Z,101991.31
2022-12-01T00:20:35.255Z,101988.72
2022-12-01T00:25:37.381Z,101987.88
2022-12-01T00:30:39.412Z,101978.38
2022-12-01T00:35:41.456Z,101993.84
2022-12-01T00:40:43.559Z,101992.13
2022-12-01T00:45:45.771Z,101994.69
2022-12-01T00:50:48.238Z,101986.94
2022-12-01T00:55:50.487Z,101995.50
2022-12-01T01:01:01.181Z,101983.50
2022-12-01T01:06:06.395Z,101986.91
2022-12-01T01:11:09.550Z,101981.75
2022-12-01T01:16:18.218Z,101986.91
2022-12-01T01:21:22.204Z,101983.44
2022-12-01T01:26:27.441Z,101982.59
2022-12-01T01:31:31.453Z,101957.63
2022-12-01T01:36:33.545Z,101980.84
2022-12-01T01:41:35.579Z,101979.94
2022-12-01T01:46:37.892Z,101979.09
2022-12-01T01:51:58.274Z,101969.69
2022-12-01T01:57:01.948Z,101934.44
2022-12-01T02:02:06.915Z,101972.22
2022-12-01T02:07:11.488Z,101980.78
2022-12-01T02:12:16.677Z,101984.22
2022-12-01T02:17:41.834Z,101983.38
2022-12-01T02:23:13.100Z,101986.78
2022-12-01T02:28:52.622Z,101984.22
2022-12-01T02:34:01.977Z,101982.47
2022-12-01T02:39:17.350Z,101948.13
2022-12-01T02:44:32.549Z,101979.06
2022-12-01T02:49:40.408Z,101971.31
2022-12-01T02:54:45.827Z,101973.00
2022-12-01T02:59:53.689Z,101934.34
2022-12-01T03:05:04.650Z,101927.47
2022-12-01T03:10:16.112Z,101969.53
2022-12-01T03:15:32.245Z,101968.69
2022-12-01T03:20:57.901Z,101960.09
2022-12-01T03:26:03.964Z,101970.38
2022-12-01T03:31:10.008Z,101936.91
2022-12-01T03:36:38.109Z,101960.94
2022-12-01T03:41:45.709Z,101953.25
2022-12-01T03:46:54.105Z,101922.34
2022-12-01T03:51:59.052Z,101955.78
2022-12-01T03:57:06.305Z,101958.31
2022-12-01T04:02:08.862Z,101971.13
2022-12-01T04:07:13.609Z,101970.25
2022-12-01T04:12:31.069Z,101956.56
2022-12-01T04:17:33.152Z,101962.56
2022-12-01T04:22:35.180Z,101960.03
2022-12-01T04:27:38.085Z,101966.03
2022-12-01T04:32:42.046Z,101970.31
2022-12-01T04:37:44.111Z,101977.16
2022-12-01T04:42:46.183Z,101964.25
2022-12-01T04:47:53.080Z,101971.19
2022-12-01T04:52:55.304Z,101962.59
2022-12-01T04:57:58.183Z,101973.75
2022-12-01T05:03:00.810Z,101969.50
2022-12-01T05:08:03.002Z,101963.47
2022-12-01T05:13:05.916Z,101979.75
2022-12-01T05:18:07.965Z,101976.34
2022-12-01T05:23:16.362Z,101983.13
2022-12-01T05:28:19.558Z,101974.66
2022-12-01T05:33:23.393Z,101975.53
2022-12-01T05:38:25.504Z,101952.38
2022-12-01T05:43:29.582Z,101987.63
2022-12-01T05:48:32.201Z,101966.22
2022-12-01T05:53:34.267Z,101995.47
2022-12-01T05:58:36.603Z,101989.50
2022-12-01T06:03:38.698Z,102003.31
2022-12-01T06:08:40.753Z,102009.41
2022-12-01T06:13:42.795Z,102019.78
2022-12-01T06:18:44.873Z,102018.13
2022-12-01T06:23:46.979Z,102023.34
2022-12-01T06:28:49.036Z,102020.75
2022-12-01T06:33:51.081Z,102019.94
2022-12-01T06:38:53.070Z,102021.66
2022-12-01T06:43:55.110Z,102022.47
2022-12-01T06:48:57.338Z,101990.53
2022-12-01T06:54:05.066Z,102024.34
2022-12-01T06:59:07.662Z,102013.03
2022-12-01T07:04:09.828Z,102007.75
2022-12-01T07:09:11.852Z,102010.78
2022-12-01T07:14:23.417Z,102014.25
2022-12-01T07:19:25.622Z,102018.91
2022-12-01T07:24:27.692Z,102010.59
2022-12-01T07:29:29.700Z,102009.81
2022-12-01T07:34:31.720Z,102020.72
2022-12-01T07:39:33.754Z,102002.19
2022-12-01T07:44:35.757Z,102019.63
2022-12-01T07:49:38.167Z,102018.88
2022-12-01T07:54:41.286Z,102009.66
2022-12-01T07:59:43.441Z,102015.81
2022-12-01T08:04:45.515Z,102006.19
2022-12-01T08:09:47.859Z,102009.84
2022-12-01T08:14:50.233Z,102008.56
2022-12-01T08:19:52.354Z,102013.56
2022-12-01T08:24:54.440Z,101984.53
2022-12-01T08:29:56.456Z,101975.53
2022-12-01T08:34:58.479Z,102002.38
2022-12-01T08:40:00.625Z,102002.38
2022-12-01T08:45:02.872Z,101994.44
2022-12-01T08:50:06.612Z,101991.53
2022-12-01T08:55:09.420Z,101992.78
2022-12-01T09:00:12.554Z,101993.00
2022-12-01T09:05:14.743Z,101984.34
2022-12-01T09:10:16.984Z,101982.63
2022-12-01T09:15:19.039Z,101962.97
2022-12-01T09:20:21.043Z,101976.78
2022-12-01T09:25:23.193Z,101975.34
2022-12-01T09:30:25.046Z,101971.97
2022-12-01T09:35:27.337Z,101974.19
2022-12-01T09:40:43.300Z,101979.94
2022-12-01T09:45:51.760Z,101963.63
2022-12-01T09:50:54.414Z,101973.41
2022-12-01T09:56:02.544Z,101966.44
2022-12-01T10:01:17.987Z,101976.63
2022-12-01T10:06:29.771Z,101975.50
2022-12-01T10:11:36.181Z,101982.72
2022-12-01T10:16:49.349Z,101979.78
2022-12-01T10:22:26.983Z,101968.63
2022-12-01T10:27:38.560Z,101969.69
2022-12-01T10:33:15.860Z,101978.50
2022-12-01T10:38:30.786Z,101973.16
2022-12-01T10:43:44.217Z,101969.53
2022-12-01T10:48:57.858Z,101961.16
2022-12-01T10:54:11.527Z,101957.59
2022-12-01T10:59:27.150Z,101955.38
2022-12-01T11:04:29.170Z,101946.56
2022-12-01T11:09:31.512Z,101951.66
2022-12-01T11:14:37.294Z,101945.06
2022-12-01T11:19:39.394Z,101919.41
2022-12-01T11:24:55.773Z,101936.19
2022-12-01T11:30:10.375Z,101955.34
2022-12-01T11:35:21.637Z,101948.56
2022-12-01T11:40:46.223Z,101947.09
2022-12-01T11:45:48.594Z,101951.84
2022-12-01T11:51:02.036Z,101940.13
2022-12-01T11:56:13.094Z,101952.88
2022-12-01T12:01:22.247Z,101959.38
2022-12-01T12:06:41.426Z,101955.63
2022-12-01T12:12:23.312Z,101947.44
2022-12-01T12:17:34.094Z,101968.09
2022-12-01T12:22:58.826Z,101944.72
2022-12-01T12:28:25.535Z,101960.91
2022-12-01T12:33:37.895Z,101954.84
2022-12-01T12:39:01.138Z,101945.84
2022-12-01T12:44:30.024Z,101956.59
2022-12-01T12:49:49.334Z,101960.50
2022-12-01T12:54:57.326Z,101960.09
2022-12-01T13:00:14.594Z,101965.66
2022-12-01T13:05:49.517Z,101976.22
2022-12-01T13:11:06.811Z,101970.41
2022-12-01T13:16:19.303Z,101970.50
2022-12-01T13:21:24.113Z,101965.47
2022-12-01T13:26:26.541Z,101958.66
2022-12-01T13:31:28.710Z,101962.09
2022-12-01T13:36:48.434Z,101960.34
2022-12-01T13:42:07.330Z,101962.00
2022-12-01T13:47:12.383Z,101969.97
2022-12-01T13:52:23.355Z,101970.03
2022-12-01T13:57:31.839Z,101967.50
2022-12-01T14:02:35.882Z,101958.94
2022-12-01T14:07:38.932Z,101964.09
2022-12-01T14:12:45.712Z,101960.59
2022-12-01T14:17:53.772Z,101958.91
2022-12-01T14:23:15.078Z,101948.47
2022-12-01T14:28:17.553Z,101953.47
2022-12-01T14:33:48.042Z,101951.94
2022-12-01T14:38:59.153Z,101949.44
2022-12-01T14:44:10.891Z,101935.69
2022-12-01T14:49:17.983Z,101933.22
2022-12-01T14:54:29.096Z,101930.66
2022-12-01T14:59:31.560Z,101934.22
2022-12-01T15:04:34.485Z,101932.53
2022-12-01T15:09:36.673Z,101941.16
2022-12-01T15:14:47.516Z,101911.94
2022-12-01T15:19:51.038Z,101929.97
2022-12-01T15:24:53.378Z,101936.88
2022-12-01T15:29:58.399Z,101939.47
2022-12-01T15:35:05.498Z,101939.53
2022-12-01T15:40:54.483Z,101937.88
2022-12-01T15:45:42.778Z,101910.44
2022-12-01T15:50:58.961Z,101938.81
2022-12-01T15:56:05.086Z,101923.34
2022-12-01T16:01:14.533Z,101928.53
2022-12-01T16:06:18.103Z,101926.81
2022-12-01T16:11:22.088Z,101935.41
2022-12-01T16:16:45.892Z,101926.78
2022-12-01T16:21:49.323Z,101915.63
2022-12-01T16:27:00.463Z,101927.66
2022-12-01T16:32:21.339Z,101935.28
2022-12-01T16:37:24.028Z,101939.75
2022-12-01T16:42:27.561Z,101932.06
2022-12-01T16:47:31.933Z,101931.19
2022-12-01T16:52:44.249Z,101926.09
2022-12-01T16:57:47.223Z,101910.63
2022-12-01T17:02:50.119Z,101917.53
2022-12-01T17:07:52.341Z,101895.25
2022-12-01T17:12:55.207Z,101908.06
2022-12-01T17:17:57.400Z,101908.94
2022-12-01T17:22:59.924Z,101914.06
2022-12-01T17:28:02.135Z,101909.78
2022-12-01T17:33:04.412Z,101908.06
2022-12-01T17:38:06.643Z,101891.75
2022-12-01T17:43:08.747Z,101898.63
2022-12-01T17:48:11.279Z,101900.34
2022-12-01T17:53:13.323Z,101903.78
2022-12-01T17:58:18.191Z,101905.56
2022-12-01T18:03:21.446Z,101908.16
2022-12-01T18:08:25.681Z,101903.00
2022-12-01T18:13:29.797Z,101904.78
2022-12-01T18:18:31.996Z,101916.81
2022-12-01T18:23:34.954Z,101897.06
2022-12-01T18:28:37.343Z,101873.97
2022-12-01T18:33:41.857Z,101908.28
2022-12-01T18:38:44.517Z,101876.53
2022-12-01T18:43:47.097Z,101909.13
2022-12-01T18:48:54.432Z,101912.56
2022-12-01T18:53:58.475Z,101915.97
2022-12-01T18:59:03.755Z,101928.88
2022-12-01T19:04:08.781Z,101931.47
2022-12-01T19:09:13.057Z,101928.03
2022-12-01T19:14:17.627Z,101938.34
2022-12-01T19:19:21.354Z,101930.59
2022-12-01T19:24:23.515Z,101934.03
2022-12-01T19:29:25.870Z,101941.78
2022-12-01T19:34:28.132Z,101945.22
2022-12-01T19:39:30.548Z,101940.97
2022-12-01T19:44:33.138Z,101950.38
2022-12-01T19:49:35.635Z,101943.56
2022-12-01T19:54:37.927Z,101940.09
2022-12-01T19:59:40.116Z,101944.41
2022-12-01T20:04:43.660Z,101939.25
2022-12-01T20:09:49.885Z,101931.50
2022-12-01T20:14:52.885Z,101936.66
2022-12-01T20:19:55.408Z,101934.06
2022-12-01T20:24:57.507Z,101940.09
2022-12-01T20:29:59.688Z,101952.94
2022-12-01T20:35:02.047Z,101947.78
2022-12-01T20:40:06.333Z,101954.63
2022-12-01T20:45:08.487Z,101956.38
2022-12-01T20:50:10.871Z,101952.09
2022-12-01T20:55:13.106Z,101946.09
2022-12-01T21:00:15.798Z,101953.78
2022-12-01T21:05:18.147Z,101958.91
2022-12-01T21:10:20.776Z,101966.59
2022-12-01T21:15:28.870Z,101966.59
2022-12-01T21:20:36.064Z,101959.75
2022-12-01T21:25:39.949Z,101961.47
2022-12-01T21:30:42.197Z,101954.59
2022-12-01T21:35:44.448Z,101933.97
2022-12-01T21:40:47.076Z,101934.84
2022-12-01T21:45:56.241Z,101934.00
2022-12-01T21:51:01.849Z,101929.69
2022-12-01T21:56:04.277Z,101934.84
2022-12-01T22:01:23.318Z,101939.13
2022-12-01T22:06:30.567Z,101933.97
2022-12-01T22:11:32.900Z,101936.53
2022-12-01T22:16:47.235Z,101901.34
2022-12-01T22:29:00.193Z,101939.97
2022-12-01T22:34:03.496Z,101938.25
2022-12-01T22:39:26.658Z,101894.47
2022-12-01T22:44:30.940Z,101929.66
2022-12-01T22:49:34.267Z,101929.63
2022-12-01T22:54:43.584Z,101930.50
2022-12-01T22:59:47.851Z,101927.91
2022-12-01T23:04:56.967Z,101921.03
2022-12-01T23:10:19.368Z,101920.19
2022-12-01T23:15:45.014Z,101922.75
2022-12-01T23:20:55.384Z,101926.13
2022-12-01T23:25:58.617Z,101922.69
2022-12-01T23:31:00.829Z,101920.09
2022-12-01T23:36:07.350Z,101908.09
2022-12-01T23:41:33.568Z,101914.13
2022-12-01T23:46:36.575Z,101911.53
2022-12-01T23:51:44.232Z,101923.56
2022-12-01T23:56:57.052Z,101923.59
